Valentine, Arizona
Current Conditions -  °F | °C
As of 3:51 PM on Friday 28 Nov 2014 (Local Time) from KIGM Reporting Station
Clear Clear  
Wind Chill: 73°   Ceiling: Unl
Heat Index: 73°   Visibility: 10mi
Dew Point: 14°   Wind: 15mph
Humidity: 11%   Direction: 230°SW
Pressure: 30"   Gusts: NA
Location:  35.39°N, 113.66°W
Report Text: KIGM 282251Z AUTO 23013KT 10SM CLR 23/M10 A3000 RMK AO2 SLP113 T02281100 $
Loading
Personal Weather Stations






























Interactive Weather Map New forecast layout! Learn more

10-Day Weather Forecast

Advertisements
Track Severe Weather on mobile